sensor_id;sensor_type;location;lat;lon;timestamp;P1;durP1;ratioP1;P2;durP2;ratioP2
84048;SDS011;74136;51.684;7.862;2024-01-16T00:00:58;19.48;;;7.57;;
84048;SDS011;74136;51.684;7.862;2024-01-16T00:03:25;18.30;;;8.07;;
84048;SDS011;74136;51.684;7.862;2024-01-16T00:05:52;17.73;;;9.93;;
84048;SDS011;74136;51.684;7.862;2024-01-16T00:08:18;15.73;;;6.72;;
84048;SDS011;74136;51.684;7.862;2024-01-16T00:10:45;15.60;;;8.15;;
84048;SDS011;74136;51.684;7.862;2024-01-16T00:13:11;16.27;;;7.32;;
84048;SDS011;74136;51.684;7.862;2024-01-16T00:15:38;21.48;;;8.82;;
84048;SDS011;74136;51.684;7.862;2024-01-16T00:18:04;16.60;;;7.70;;
84048;SDS011;74136;51.684;7.862;2024-01-16T00:20:30;15.48;;;7.30;;
84048;SDS011;74136;51.684;7.862;2024-01-16T00:22:57;16.30;;;7.95;;
84048;SDS011;74136;51.684;7.862;2024-01-16T00:25:23;16.17;;;7.70;;
84048;SDS011;74136;51.684;7.862;2024-01-16T00:27:49;14.38;;;7.82;;
84048;SDS011;74136;51.684;7.862;2024-01-16T00:30:15;17.70;;;7.50;;
84048;SDS011;74136;51.684;7.862;2024-01-16T00:32:42;16.73;;;7.53;;
84048;SDS011;74136;51.684;7.862;2024-01-16T00:35:08;18.35;;;8.30;;
84048;SDS011;74136;51.684;7.862;2024-01-16T00:37:36;17.85;;;7.43;;
84048;SDS011;74136;51.684;7.862;2024-01-16T00:40:03;22.55;;;7.70;;
84048;SDS011;74136;51.684;7.862;2024-01-16T00:42:31;17.08;;;7.97;;
84048;SDS011;74136;51.684;7.862;2024-01-16T00:44:58;21.30;;;10.40;;
84048;SDS011;74136;51.684;7.862;2024-01-16T00:47:24;21.63;;;9.75;;
84048;SDS011;74136;51.684;7.862;2024-01-16T00:49:50;18.38;;;10.30;;
84048;SDS011;74136;51.684;7.862;2024-01-16T00:52:17;17.17;;;8.75;;
84048;SDS011;74136;51.684;7.862;2024-01-16T00:54:43;19.38;;;11.73;;
84048;SDS011;74136;51.684;7.862;2024-01-16T00:57:09;22.52;;;9.25;;
84048;SDS011;74136;51.684;7.862;2024-01-16T00:59:37;15.73;;;7.15;;
84048;SDS011;74136;51.684;7.862;2024-01-16T01:02:03;23.17;;;7.72;;
84048;SDS011;74136;51.684;7.862;2024-01-16T01:04:29;20.23;;;11.27;;
84048;SDS011;74136;51.684;7.862;2024-01-16T01:06:55;20.42;;;8.50;;
84048;SDS011;74136;51.684;7.862;2024-01-16T01:09:24;21.42;;;9.05;;
84048;SDS011;74136;51.684;7.862;2024-01-16T01:14:17;20.63;;;8.57;;
84048;SDS011;74136;51.684;7.862;2024-01-16T01:16:43;19.25;;;8.05;;
84048;SDS011;74136;51.684;7.862;2024-01-16T01:19:09;23.13;;;9.57;;
84048;SDS011;74136;51.684;7.862;2024-01-16T01:21:35;21.15;;;9.75;;
84048;SDS011;74136;51.684;7.862;2024-01-16T01:24:02;25.70;;;11.20;;
84048;SDS011;74136;51.684;7.862;2024-01-16T01:26:28;24.45;;;12.15;;
84048;SDS011;74136;51.684;7.862;2024-01-16T01:28:54;20.48;;;8.90;;
84048;SDS011;74136;51.684;7.862;2024-01-16T01:31:20;23.42;;;9.88;;
84048;SDS011;74136;51.684;7.862;2024-01-16T01:33:46;22.17;;;11.20;;
84048;SDS011;74136;51.684;7.862;2024-01-16T01:36:13;21.45;;;9.77;;
84048;SDS011;74136;51.684;7.862;2024-01-16T01:38:39;23.33;;;9.40;;
84048;SDS011;74136;51.684;7.862;2024-01-16T01:41:06;28.08;;;9.27;;
84048;SDS011;74136;51.684;7.862;2024-01-16T01:43:32;24.90;;;9.45;;
84048;SDS011;74136;51.684;7.862;2024-01-16T01:48:45;31.25;;;11.70;;
84048;SDS011;74136;51.684;7.862;2024-01-16T01:51:14;17.25;;;7.07;;
84048;SDS011;74136;51.684;7.862;2024-01-16T01:53:43;22.55;;;8.20;;
84048;SDS011;74136;51.684;7.862;2024-01-16T01:56:11;27.42;;;11.70;;
84048;SDS011;74136;51.684;7.862;2024-01-16T01:58:41;21.58;;;10.65;;
84048;SDS011;74136;51.684;7.862;2024-01-16T02:01:10;20.48;;;8.68;;
84048;SDS011;74136;51.684;7.862;2024-01-16T02:03:41;25.17;;;12.35;;
84048;SDS011;74136;51.684;7.862;2024-01-16T02:06:11;18.70;;;7.65;;
84048;SDS011;74136;51.684;7.862;2024-01-16T02:08:39;23.70;;;9.98;;
84048;SDS011;74136;51.684;7.862;2024-01-16T02:11:06;19.67;;;8.82;;
84048;SDS011;74136;51.684;7.862;2024-01-16T02:13:33;25.40;;;11.35;;
84048;SDS011;74136;51.684;7.862;2024-01-16T02:15:59;19.70;;;9.65;;
84048;SDS011;74136;51.684;7.862;2024-01-16T02:18:25;23.25;;;11.93;;
84048;SDS011;74136;51.684;7.862;2024-01-16T02:20:51;23.70;;;9.48;;
84048;SDS011;74136;51.684;7.862;2024-01-16T02:23:25;21.60;;;10.30;;
84048;SDS011;74136;51.684;7.862;2024-01-16T02:25:52;25.08;;;11.35;;
84048;SDS011;74136;51.684;7.862;2024-01-16T02:28:20;26.63;;;10.23;;
84048;SDS011;74136;51.684;7.862;2024-01-16T02:30:48;31.77;;;12.30;;
84048;SDS011;74136;51.684;7.862;2024-01-16T02:33:14;29.65;;;13.45;;
84048;SDS011;74136;51.684;7.862;2024-01-16T02:35:40;26.45;;;10.57;;
84048;SDS011;74136;51.684;7.862;2024-01-16T02:38:07;30.48;;;16.38;;
84048;SDS011;74136;51.684;7.862;2024-01-16T02:40:33;30.35;;;14.75;;
84048;SDS011;74136;51.684;7.862;2024-01-16T02:42:59;23.38;;;9.18;;
84048;SDS011;74136;51.684;7.862;2024-01-16T02:45:25;31.73;;;14.55;;
84048;SDS011;74136;51.684;7.862;2024-01-16T02:47:51;25.85;;;10.15;;
84048;SDS011;74136;51.684;7.862;2024-01-16T02:50:18;26.23;;;11.13;;
84048;SDS011;74136;51.684;7.862;2024-01-16T02:52:46;25.55;;;9.10;;
84048;SDS011;74136;51.684;7.862;2024-01-16T02:55:12;26.98;;;11.13;;
84048;SDS011;74136;51.684;7.862;2024-01-16T02:57:39;30.42;;;14.93;;
84048;SDS011;74136;51.684;7.862;2024-01-16T03:00:05;29.10;;;11.88;;
84048;SDS011;74136;51.684;7.862;2024-01-16T03:05:01;29.70;;;12.52;;
84048;SDS011;74136;51.684;7.862;2024-01-16T03:07:29;28.15;;;12.63;;
84048;SDS011;74136;51.684;7.862;2024-01-16T03:09:55;26.17;;;13.48;;
84048;SDS011;74136;51.684;7.862;2024-01-16T03:12:21;23.95;;;9.68;;
84048;SDS011;74136;51.684;7.862;2024-01-16T03:14:48;29.80;;;13.93;;
84048;SDS011;74136;51.684;7.862;2024-01-16T03:17:14;29.13;;;11.10;;
84048;SDS011;74136;51.684;7.862;2024-01-16T03:19:40;28.85;;;14.30;;
84048;SDS011;74136;51.684;7.862;2024-01-16T03:22:07;26.75;;;12.02;;
84048;SDS011;74136;51.684;7.862;2024-01-16T03:24:33;29.30;;;11.15;;
84048;SDS011;74136;51.684;7.862;2024-01-16T03:26:59;33.47;;;13.68;;
84048;SDS011;74136;51.684;7.862;2024-01-16T03:29:25;24.33;;;11.25;;
84048;SDS011;74136;51.684;7.862;2024-01-16T03:31:52;24.00;;;13.52;;
84048;SDS011;74136;51.684;7.862;2024-01-16T03:34:19;24.80;;;11.40;;
84048;SDS011;74136;51.684;7.862;2024-01-16T03:36:45;26.85;;;9.95;;
84048;SDS011;74136;51.684;7.862;2024-01-16T03:39:11;28.08;;;11.35;;
84048;SDS011;74136;51.684;7.862;2024-01-16T03:41:37;22.13;;;10.63;;
84048;SDS011;74136;51.684;7.862;2024-01-16T03:44:04;20.70;;;8.07;;
84048;SDS011;74136;51.684;7.862;2024-01-16T03:46:30;24.60;;;10.82;;
84048;SDS011;74136;51.684;7.862;2024-01-16T03:48:56;18.10;;;8.00;;
84048;SDS011;74136;51.684;7.862;2024-01-16T03:51:23;19.55;;;9.07;;
84048;SDS011;74136;51.684;7.862;2024-01-16T03:53:49;22.83;;;9.02;;
84048;SDS011;74136;51.684;7.862;2024-01-16T03:56:16;19.70;;;9.60;;
84048;SDS011;74136;51.684;7.862;2024-01-16T03:58:43;23.98;;;13.27;;
84048;SDS011;74136;51.684;7.862;2024-01-16T04:01:09;23.73;;;10.43;;
84048;SDS011;74136;51.684;7.862;2024-01-16T04:03:36;27.98;;;13.27;;
84048;SDS011;74136;51.684;7.862;2024-01-16T04:06:02;26.00;;;9.80;;
84048;SDS011;74136;51.684;7.862;2024-01-16T04:08:28;20.60;;;8.65;;
84048;SDS011;74136;51.684;7.862;2024-01-16T04:10:54;26.40;;;10.50;;
84048;SDS011;74136;51.684;7.862;2024-01-16T04:13:20;24.25;;;9.57;;
84048;SDS011;74136;51.684;7.862;2024-01-16T04:15:47;26.35;;;10.60;;
84048;SDS011;74136;51.684;7.862;2024-01-16T04:18:13;30.83;;;11.95;;
84048;SDS011;74136;51.684;7.862;2024-01-16T04:20:39;28.50;;;10.00;;
84048;SDS011;74136;51.684;7.862;2024-01-16T04:23:06;27.92;;;12.40;;
84048;SDS011;74136;51.684;7.862;2024-01-16T04:25:32;25.40;;;10.77;;
84048;SDS011;74136;51.684;7.862;2024-01-16T04:27:59;33.33;;;13.05;;
84048;SDS011;74136;51.684;7.862;2024-01-16T04:30:26;29.77;;;11.60;;
84048;SDS011;74136;51.684;7.862;2024-01-16T04:32:52;29.33;;;11.10;;
84048;SDS011;74136;51.684;7.862;2024-01-16T04:35:19;40.22;;;14.50;;
84048;SDS011;74136;51.684;7.862;2024-01-16T04:37:45;27.05;;;12.65;;
84048;SDS011;74136;51.684;7.862;2024-01-16T04:40:11;27.40;;;11.13;;
84048;SDS011;74136;51.684;7.862;2024-01-16T04:42:37;31.77;;;13.23;;
84048;SDS011;74136;51.684;7.862;2024-01-16T04:45:04;30.52;;;13.50;;
84048;SDS011;74136;51.684;7.862;2024-01-16T04:47:30;30.13;;;12.02;;
84048;SDS011;74136;51.684;7.862;2024-01-16T04:49:57;33.47;;;12.15;;
84048;SDS011;74136;51.684;7.862;2024-01-16T04:52:23;36.55;;;14.57;;
84048;SDS011;74136;51.684;7.862;2024-01-16T04:54:49;40.63;;;16.40;;
84048;SDS011;74136;51.684;7.862;2024-01-16T04:57:15;36.03;;;17.20;;
84048;SDS011;74136;51.684;7.862;2024-01-16T04:59:42;31.17;;;12.65;;
84048;SDS011;74136;51.684;7.862;2024-01-16T05:02:08;34.90;;;13.73;;
84048;SDS011;74136;51.684;7.862;2024-01-16T05:04:36;32.88;;;13.25;;
84048;SDS011;74136;51.684;7.862;2024-01-16T05:07:04;31.65;;;12.45;;
84048;SDS011;74136;51.684;7.862;2024-01-16T05:09:30;35.13;;;15.70;;
84048;SDS011;74136;51.684;7.862;2024-01-16T05:11:56;35.80;;;14.02;;
84048;SDS011;74136;51.684;7.862;2024-01-16T05:14:22;39.58;;;21.10;;
84048;SDS011;74136;51.684;7.862;2024-01-16T05:16:51;29.52;;;13.57;;
84048;SDS011;74136;51.684;7.862;2024-01-16T05:19:17;34.28;;;14.20;;
84048;SDS011;74136;51.684;7.862;2024-01-16T05:21:44;32.40;;;13.07;;
84048;SDS011;74136;51.684;7.862;2024-01-16T05:24:11;32.83;;;13.30;;
84048;SDS011;74136;51.684;7.862;2024-01-16T05:26:37;37.17;;;13.30;;
84048;SDS011;74136;51.684;7.862;2024-01-16T05:29:04;33.00;;;13.73;;
84048;SDS011;74136;51.684;7.862;2024-01-16T05:31:30;28.48;;;12.35;;
84048;SDS011;74136;51.684;7.862;2024-01-16T05:33:56;41.45;;;23.48;;
84048;SDS011;74136;51.684;7.862;2024-01-16T05:36:23;34.78;;;16.23;;
84048;SDS011;74136;51.684;7.862;2024-01-16T05:38:50;33.10;;;13.20;;
84048;SDS011;74136;51.684;7.862;2024-01-16T05:41:19;35.72;;;13.65;;
84048;SDS011;74136;51.684;7.862;2024-01-16T05:43:45;38.08;;;14.82;;
84048;SDS011;74136;51.684;7.862;2024-01-16T05:46:11;35.40;;;15.77;;
84048;SDS011;74136;51.684;7.862;2024-01-16T05:48:38;31.08;;;14.60;;
84048;SDS011;74136;51.684;7.862;2024-01-16T05:51:04;34.15;;;13.00;;
84048;SDS011;74136;51.684;7.862;2024-01-16T05:53:30;35.22;;;14.90;;
84048;SDS011;74136;51.684;7.862;2024-01-16T05:55:57;30.25;;;13.07;;
84048;SDS011;74136;51.684;7.862;2024-01-16T05:58:23;35.60;;;14.90;;
84048;SDS011;74136;51.684;7.862;2024-01-16T06:00:49;28.35;;;12.82;;
84048;SDS011;74136;51.684;7.862;2024-01-16T06:03:15;30.58;;;12.30;;
84048;SDS011;74136;51.684;7.862;2024-01-16T06:05:42;37.22;;;17.60;;
84048;SDS011;74136;51.684;7.862;2024-01-16T06:08:08;33.30;;;13.10;;
84048;SDS011;74136;51.684;7.862;2024-01-16T06:10:34;32.50;;;16.38;;
84048;SDS011;74136;51.684;7.862;2024-01-16T06:13:00;30.83;;;15.13;;
84048;SDS011;74136;51.684;7.862;2024-01-16T06:15:27;32.88;;;11.75;;
84048;SDS011;74136;51.684;7.862;2024-01-16T06:17:53;31.27;;;12.13;;
84048;SDS011;74136;51.684;7.862;2024-01-16T06:20:19;31.50;;;14.30;;
84048;SDS011;74136;51.684;7.862;2024-01-16T06:22:46;30.65;;;14.27;;
84048;SDS011;74136;51.684;7.862;2024-01-16T06:25:12;33.65;;;14.80;;
84048;SDS011;74136;51.684;7.862;2024-01-16T06:27:40;28.73;;;13.38;;
84048;SDS011;74136;51.684;7.862;2024-01-16T06:30:07;27.13;;;11.02;;
84048;SDS011;74136;51.684;7.862;2024-01-16T06:32:34;32.35;;;12.77;;
84048;SDS011;74136;51.684;7.862;2024-01-16T06:35:00;31.40;;;15.57;;
84048;SDS011;74136;51.684;7.862;2024-01-16T06:37:26;27.30;;;11.52;;
84048;SDS011;74136;51.684;7.862;2024-01-16T06:39:53;33.15;;;12.52;;
84048;SDS011;74136;51.684;7.862;2024-01-16T06:42:19;29.45;;;12.80;;
84048;SDS011;74136;51.684;7.862;2024-01-16T06:44:45;26.67;;;13.05;;
84048;SDS011;74136;51.684;7.862;2024-01-16T06:47:12;27.90;;;11.70;;
84048;SDS011;74136;51.684;7.862;2024-01-16T06:49:38;27.75;;;11.60;;
84048;SDS011;74136;51.684;7.862;2024-01-16T06:52:06;31.48;;;12.18;;
84048;SDS011;74136;51.684;7.862;2024-01-16T06:54:33;34.72;;;18.73;;
84048;SDS011;74136;51.684;7.862;2024-01-16T06:56:59;33.72;;;13.13;;
84048;SDS011;74136;51.684;7.862;2024-01-16T06:59:25;29.75;;;12.70;;
84048;SDS011;74136;51.684;7.862;2024-01-16T07:01:52;30.30;;;15.57;;
84048;SDS011;74136;51.684;7.862;2024-01-16T07:04:18;24.33;;;11.43;;
84048;SDS011;74136;51.684;7.862;2024-01-16T07:06:44;26.08;;;11.43;;
84048;SDS011;74136;51.684;7.862;2024-01-16T07:09:10;26.27;;;12.98;;
84048;SDS011;74136;51.684;7.862;2024-01-16T07:11:37;25.13;;;10.90;;
84048;SDS011;74136;51.684;7.862;2024-01-16T07:14:06;26.23;;;12.00;;
84048;SDS011;74136;51.684;7.862;2024-01-16T07:16:35;25.80;;;12.15;;
84048;SDS011;74136;51.684;7.862;2024-01-16T07:19:01;23.58;;;11.48;;
84048;SDS011;74136;51.684;7.862;2024-01-16T07:21:29;25.00;;;9.35;;
84048;SDS011;74136;51.684;7.862;2024-01-16T07:23:55;13.77;;;6.40;;
84048;SDS011;74136;51.684;7.862;2024-01-16T07:26:22;23.02;;;9.07;;
84048;SDS011;74136;51.684;7.862;2024-01-16T07:28:48;18.70;;;8.85;;
84048;SDS011;74136;51.684;7.862;2024-01-16T07:31:15;20.60;;;11.27;;
84048;SDS011;74136;51.684;7.862;2024-01-16T07:33:44;21.52;;;9.25;;
84048;SDS011;74136;51.684;7.862;2024-01-16T07:36:11;22.63;;;9.77;;
84048;SDS011;74136;51.684;7.862;2024-01-16T07:38:37;18.13;;;8.23;;
84048;SDS011;74136;51.684;7.862;2024-01-16T07:41:04;21.63;;;7.38;;
84048;SDS011;74136;51.684;7.862;2024-01-16T07:43:31;22.38;;;8.63;;
84048;SDS011;74136;51.684;7.862;2024-01-16T07:45:58;21.30;;;10.88;;
84048;SDS011;74136;51.684;7.862;2024-01-16T07:48:24;24.90;;;10.02;;
84048;SDS011;74136;51.684;7.862;2024-01-16T07:50:50;19.60;;;9.07;;
84048;SDS011;74136;51.684;7.862;2024-01-16T07:53:16;15.75;;;7.22;;
84048;SDS011;74136;51.684;7.862;2024-01-16T07:55:43;17.73;;;7.45;;
84048;SDS011;74136;51.684;7.862;2024-01-16T07:58:10;23.60;;;9.43;;
84048;SDS011;74136;51.684;7.862;2024-01-16T08:00:37;25.10;;;9.95;;
84048;SDS011;74136;51.684;7.862;2024-01-16T08:03:04;22.98;;;8.55;;
84048;SDS011;74136;51.684;7.862;2024-01-16T08:05:33;19.30;;;8.23;;
84048;SDS011;74136;51.684;7.862;2024-01-16T08:08:00;21.85;;;10.02;;
84048;SDS011;74136;51.684;7.862;2024-01-16T08:10:26;20.48;;;9.18;;
84048;SDS011;74136;51.684;7.862;2024-01-16T08:12:52;20.25;;;7.88;;
84048;SDS011;74136;51.684;7.862;2024-01-16T08:15:18;22.00;;;9.73;;
84048;SDS011;74136;51.684;7.862;2024-01-16T08:17:44;26.77;;;12.65;;
84048;SDS011;74136;51.684;7.862;2024-01-16T08:20:11;26.58;;;11.32;;
84048;SDS011;74136;51.684;7.862;2024-01-16T08:22:38;26.83;;;11.27;;
84048;SDS011;74136;51.684;7.862;2024-01-16T08:25:04;28.98;;;11.70;;
84048;SDS011;74136;51.684;7.862;2024-01-16T08:27:31;31.73;;;12.10;;
84048;SDS011;74136;51.684;7.862;2024-01-16T08:29:57;28.50;;;12.13;;
84048;SDS011;74136;51.684;7.862;2024-01-16T08:32:24;32.10;;;13.38;;
84048;SDS011;74136;51.684;7.862;2024-01-16T08:34:50;27.80;;;10.70;;
84048;SDS011;74136;51.684;7.862;2024-01-16T08:37:17;26.38;;;11.20;;
84048;SDS011;74136;51.684;7.862;2024-01-16T08:39:43;27.55;;;11.00;;
84048;SDS011;74136;51.684;7.862;2024-01-16T08:42:09;28.67;;;12.20;;
84048;SDS011;74136;51.684;7.862;2024-01-16T08:44:38;33.38;;;13.75;;
84048;SDS011;74136;51.684;7.862;2024-01-16T08:47:05;37.97;;;18.20;;
84048;SDS011;74136;51.684;7.862;2024-01-16T08:49:32;42.97;;;14.93;;
84048;SDS011;74136;51.684;7.862;2024-01-16T08:51:59;33.45;;;16.83;;
84048;SDS011;74136;51.684;7.862;2024-01-16T08:54:25;31.40;;;14.15;;
84048;SDS011;74136;51.684;7.862;2024-01-16T08:56:52;32.33;;;14.88;;
84048;SDS011;74136;51.684;7.862;2024-01-16T08:59:18;32.13;;;13.43;;
84048;SDS011;74136;51.684;7.862;2024-01-16T09:01:46;35.00;;;14.77;;
84048;SDS011;74136;51.684;7.862;2024-01-16T09:04:12;32.60;;;13.85;;
84048;SDS011;74136;51.684;7.862;2024-01-16T09:06:38;29.75;;;12.40;;
84048;SDS011;74136;51.684;7.862;2024-01-16T09:09:04;27.33;;;12.13;;
84048;SDS011;74136;51.684;7.862;2024-01-16T09:11:31;27.52;;;14.00;;
84048;SDS011;74136;51.684;7.862;2024-01-16T09:14:00;30.20;;;13.88;;
84048;SDS011;74136;51.684;7.862;2024-01-16T09:16:26;25.48;;;12.02;;
84048;SDS011;74136;51.684;7.862;2024-01-16T09:18:52;26.45;;;12.98;;
84048;SDS011;74136;51.684;7.862;2024-01-16T09:21:19;29.58;;;11.73;;
84048;SDS011;74136;51.684;7.862;2024-01-16T09:23:45;21.25;;;10.98;;
84048;SDS011;74136;51.684;7.862;2024-01-16T09:26:11;31.33;;;11.55;;
84048;SDS011;74136;51.684;7.862;2024-01-16T09:28:37;24.40;;;10.50;;
84048;SDS011;74136;51.684;7.862;2024-01-16T09:31:08;25.35;;;11.35;;
84048;SDS011;74136;51.684;7.862;2024-01-16T09:33:34;18.98;;;9.27;;
84048;SDS011;74136;51.684;7.862;2024-01-16T09:36:00;22.80;;;9.20;;
84048;SDS011;74136;51.684;7.862;2024-01-16T09:38:27;20.95;;;10.88;;
84048;SDS011;74136;51.684;7.862;2024-01-16T09:40:53;14.30;;;6.55;;
84048;SDS011;74136;51.684;7.862;2024-01-16T09:43:22;18.10;;;7.47;;
84048;SDS011;74136;51.684;7.862;2024-01-16T09:45:50;13.90;;;5.88;;
84048;SDS011;74136;51.684;7.862;2024-01-16T09:48:17;13.30;;;6.70;;
84048;SDS011;74136;51.684;7.862;2024-01-16T09:50:43;13.00;;;5.50;;
84048;SDS011;74136;51.684;7.862;2024-01-16T09:53:10;17.83;;;7.32;;
84048;SDS011;74136;51.684;7.862;2024-01-16T09:55:37;16.55;;;6.68;;
84048;SDS011;74136;51.684;7.862;2024-01-16T09:58:03;14.50;;;5.45;;
84048;SDS011;74136;51.684;7.862;2024-01-16T10:00:31;14.40;;;5.93;;
84048;SDS011;74136;51.684;7.862;2024-01-16T10:02:59;13.27;;;4.80;;
84048;SDS011;74136;51.684;7.862;2024-01-16T10:05:26;15.93;;;4.22;;
84048;SDS011;74136;51.684;7.862;2024-01-16T10:07:52;12.30;;;3.80;;
84048;SDS011;74136;51.684;7.862;2024-01-16T10:10:19;13.05;;;4.72;;
84048;SDS011;74136;51.684;7.862;2024-01-16T10:12:48;13.07;;;4.10;;
84048;SDS011;74136;51.684;7.862;2024-01-16T10:15:15;13.27;;;3.17;;
84048;SDS011;74136;51.684;7.862;2024-01-16T10:17:43;10.10;;;3.47;;
84048;SDS011;74136;51.684;7.862;2024-01-16T10:20:10;13.07;;;2.92;;
84048;SDS011;74136;51.684;7.862;2024-01-16T10:22:52;9.13;;;2.88;;
84048;SDS011;74136;51.684;7.862;2024-01-16T10:25:19;9.68;;;3.20;;
84048;SDS011;74136;51.684;7.862;2024-01-16T10:27:47;8.48;;;3.70;;
84048;SDS011;74136;51.684;7.862;2024-01-16T10:30:13;9.88;;;3.85;;
84048;SDS011;74136;51.684;7.862;2024-01-16T10:32:40;9.63;;;3.40;;
84048;SDS011;74136;51.684;7.862;2024-01-16T10:37:50;10.68;;;3.20;;
84048;SDS011;74136;51.684;7.862;2024-01-16T10:40:21;10.15;;;3.10;;
84048;SDS011;74136;51.684;7.862;2024-01-16T10:43:03;12.75;;;3.25;;
84048;SDS011;74136;51.684;7.862;2024-01-16T10:48:07;9.15;;;2.90;;
84048;SDS011;74136;51.684;7.862;2024-01-16T10:50:34;10.27;;;2.75;;
84048;SDS011;74136;51.684;7.862;2024-01-16T10:53:03;10.73;;;2.45;;
84048;SDS011;74136;51.684;7.862;2024-01-16T10:55:30;9.30;;;2.60;;
84048;SDS011;74136;51.684;7.862;2024-01-16T10:58:00;10.48;;;2.88;;
84048;SDS011;74136;51.684;7.862;2024-01-16T11:00:28;8.63;;;2.20;;
84048;SDS011;74136;51.684;7.862;2024-01-16T11:05:31;10.15;;;2.35;;
84048;SDS011;74136;51.684;7.862;2024-01-16T11:07:59;6.35;;;1.90;;
84048;SDS011;74136;51.684;7.862;2024-01-16T11:10:31;12.50;;;2.85;;
84048;SDS011;74136;51.684;7.862;2024-01-16T11:13:01;9.85;;;2.90;;
84048;SDS011;74136;51.684;7.862;2024-01-16T11:15:28;9.27;;;2.70;;
84048;SDS011;74136;51.684;7.862;2024-01-16T11:17:55;11.68;;;3.00;;
84048;SDS011;74136;51.684;7.862;2024-01-16T11:20:22;12.70;;;3.35;;
84048;SDS011;74136;51.684;7.862;2024-01-16T11:22:49;12.13;;;3.03;;
84048;SDS011;74136;51.684;7.862;2024-01-16T11:25:17;6.40;;;2.20;;
84048;SDS011;74136;51.684;7.862;2024-01-16T11:27:46;7.18;;;2.70;;
84048;SDS011;74136;51.684;7.862;2024-01-16T11:30:28;12.10;;;2.88;;
84048;SDS011;74136;51.684;7.862;2024-01-16T11:32:59;10.82;;;2.75;;
84048;SDS011;74136;51.684;7.862;2024-01-16T11:35:32;10.63;;;3.42;;
84048;SDS011;74136;51.684;7.862;2024-01-16T11:38:17;11.20;;;3.03;;
84048;SDS011;74136;51.684;7.862;2024-01-16T11:40:46;11.48;;;2.95;;
84048;SDS011;74136;51.684;7.862;2024-01-16T11:45:58;8.95;;;2.80;;
84048;SDS011;74136;51.684;7.862;2024-01-16T11:48:24;11.25;;;2.55;;
84048;SDS011;74136;51.684;7.862;2024-01-16T11:50:52;8.82;;;2.95;;
84048;SDS011;74136;51.684;7.862;2024-01-16T11:53:32;8.77;;;3.03;;
84048;SDS011;74136;51.684;7.862;2024-01-16T12:01:53;16.27;;;2.67;;
84048;SDS011;74136;51.684;7.862;2024-01-16T12:04:24;6.90;;;2.20;;
84048;SDS011;74136;51.684;7.862;2024-01-16T12:06:56;7.32;;;2.50;;
84048;SDS011;74136;51.684;7.862;2024-01-16T12:09:25;8.65;;;2.60;;
84048;SDS011;74136;51.684;7.862;2024-01-16T12:11:56;9.85;;;2.88;;
84048;SDS011;74136;51.684;7.862;2024-01-16T12:14:28;5.97;;;2.35;;
84048;SDS011;74136;51.684;7.862;2024-01-16T12:17:13;9.45;;;2.83;;
84048;SDS011;74136;51.684;7.862;2024-01-16T12:19:40;7.57;;;3.42;;
84048;SDS011;74136;51.684;7.862;2024-01-16T12:22:08;11.30;;;2.75;;
84048;SDS011;74136;51.684;7.862;2024-01-16T12:24:36;8.45;;;2.45;;
84048;SDS011;74136;51.684;7.862;2024-01-16T12:27:03;9.55;;;2.17;;
84048;SDS011;74136;51.684;7.862;2024-01-16T12:29:31;7.38;;;2.80;;
84048;SDS011;74136;51.684;7.862;2024-01-16T12:32:04;8.77;;;3.38;;
84048;SDS011;74136;51.684;7.862;2024-01-16T12:34:44;10.07;;;3.22;;
84048;SDS011;74136;51.684;7.862;2024-01-16T12:37:11;5.55;;;2.50;;
84048;SDS011;74136;51.684;7.862;2024-01-16T12:39:38;7.25;;;2.47;;
84048;SDS011;74136;51.684;7.862;2024-01-16T12:42:08;9.63;;;2.70;;
84048;SDS011;74136;51.684;7.862;2024-01-16T12:44:36;10.05;;;2.67;;
84048;SDS011;74136;51.684;7.862;2024-01-16T12:47:02;10.10;;;2.70;;
84048;SDS011;74136;51.684;7.862;2024-01-16T12:49:28;10.02;;;2.15;;
84048;SDS011;74136;51.684;7.862;2024-01-16T12:52:14;7.97;;;2.22;;
84048;SDS011;74136;51.684;7.862;2024-01-16T12:54:42;8.15;;;2.83;;
84048;SDS011;74136;51.684;7.862;2024-01-16T12:57:08;10.13;;;2.17;;
84048;SDS011;74136;51.684;7.862;2024-01-16T12:59:39;8.10;;;2.40;;
84048;SDS011;74136;51.684;7.862;2024-01-16T13:02:06;7.28;;;2.47;;
84048;SDS011;74136;51.684;7.862;2024-01-16T13:04:32;9.40;;;2.70;;
84048;SDS011;74136;51.684;7.862;2024-01-16T13:07:02;7.45;;;2.80;;
84048;SDS011;74136;51.684;7.862;2024-01-16T13:09:29;7.38;;;2.80;;
84048;SDS011;74136;51.684;7.862;2024-01-16T13:11:55;5.90;;;2.50;;
84048;SDS011;74136;51.684;7.862;2024-01-16T13:14:24;7.47;;;2.83;;
84048;SDS011;74136;51.684;7.862;2024-01-16T13:16:51;9.10;;;3.05;;
84048;SDS011;74136;51.684;7.862;2024-01-16T13:19:21;6.15;;;2.28;;
84048;SDS011;74136;51.684;7.862;2024-01-16T13:21:48;11.05;;;4.10;;
84048;SDS011;74136;51.684;7.862;2024-01-16T13:24:15;7.50;;;3.20;;
84048;SDS011;74136;51.684;7.862;2024-01-16T13:26:43;14.10;;;2.75;;
84048;SDS011;74136;51.684;7.862;2024-01-16T13:29:10;7.47;;;3.28;;
84048;SDS011;74136;51.684;7.862;2024-01-16T13:31:36;8.80;;;3.55;;
84048;SDS011;74136;51.684;7.862;2024-01-16T13:34:02;7.20;;;2.38;;
84048;SDS011;74136;51.684;7.862;2024-01-16T13:36:29;6.15;;;2.40;;
84048;SDS011;74136;51.684;7.862;2024-01-16T13:38:55;6.10;;;2.67;;
84048;SDS011;74136;51.684;7.862;2024-01-16T13:41:21;9.40;;;2.53;;
84048;SDS011;74136;51.684;7.862;2024-01-16T13:43:48;6.65;;;2.42;;
84048;SDS011;74136;51.684;7.862;2024-01-16T13:46:15;6.22;;;2.22;;
84048;SDS011;74136;51.684;7.862;2024-01-16T13:48:43;8.88;;;2.63;;
84048;SDS011;74136;51.684;7.862;2024-01-16T13:51:11;6.10;;;3.13;;
84048;SDS011;74136;51.684;7.862;2024-01-16T13:53:37;9.98;;;2.63;;
84048;SDS011;74136;51.684;7.862;2024-01-16T13:56:03;11.40;;;3.08;;
84048;SDS011;74136;51.684;7.862;2024-01-16T13:58:30;8.82;;;2.95;;
84048;SDS011;74136;51.684;7.862;2024-01-16T14:00:57;11.38;;;2.78;;
84048;SDS011;74136;51.684;7.862;2024-01-16T14:03:23;8.27;;;2.92;;
84048;SDS011;74136;51.684;7.862;2024-01-16T14:05:50;8.27;;;2.53;;
84048;SDS011;74136;51.684;7.862;2024-01-16T14:08:16;11.40;;;2.50;;
84048;SDS011;74136;51.684;7.862;2024-01-16T14:10:42;6.38;;;3.42;;
84048;SDS011;74136;51.684;7.862;2024-01-16T14:13:08;6.70;;;2.80;;
84048;SDS011;74136;51.684;7.862;2024-01-16T14:15:35;12.27;;;3.47;;
84048;SDS011;74136;51.684;7.862;2024-01-16T14:18:02;9.07;;;3.05;;
84048;SDS011;74136;51.684;7.862;2024-01-16T14:20:29;8.75;;;2.33;;
84048;SDS011;74136;51.684;7.862;2024-01-16T14:22:55;12.00;;;2.97;;
84048;SDS011;74136;51.684;7.862;2024-01-16T14:25:22;8.10;;;2.63;;
84048;SDS011;74136;51.684;7.862;2024-01-16T14:27:56;6.07;;;2.45;;
84048;SDS011;74136;51.684;7.862;2024-01-16T14:30:29;7.68;;;2.53;;
84048;SDS011;74136;51.684;7.862;2024-01-16T14:32:56;7.65;;;3.33;;
84048;SDS011;74136;51.684;7.862;2024-01-16T14:35:25;9.02;;;3.38;;
84048;SDS011;74136;51.684;7.862;2024-01-16T14:37:51;10.65;;;3.80;;
84048;SDS011;74136;51.684;7.862;2024-01-16T14:40:17;9.52;;;3.65;;
84048;SDS011;74136;51.684;7.862;2024-01-16T14:42:51;9.90;;;2.88;;
84048;SDS011;74136;51.684;7.862;2024-01-16T14:45:23;11.48;;;3.08;;
84048;SDS011;74136;51.684;7.862;2024-01-16T14:47:50;14.95;;;3.10;;
84048;SDS011;74136;51.684;7.862;2024-01-16T14:50:17;10.00;;;3.17;;
84048;SDS011;74136;51.684;7.862;2024-01-16T14:52:44;10.98;;;3.67;;
84048;SDS011;74136;51.684;7.862;2024-01-16T14:55:10;12.13;;;3.55;;